Colorado Springs, Colorado
Current Conditions -  °F | °C
As of 2:54 AM on Sunday 26 Oct 2014 (Local Time) from KCOS Reporting Station
Few Clouds Few Clouds  
Wind Chill: 45°   Ceiling: Unl
Heat Index: 49°   Visibility: 10mi
Dew Point: 27°   Wind: 9mph
Humidity: 43%   Direction: 360°N
Pressure: 30"   Gusts: NA
Location:  38.83°N, 104.82°W
Report Text: KCOS 260854Z 36008KT 10SM FEW250 09/M03 A3000 RMK AO2 SLP088 T00941028 56015
Loading
Personal Weather Stations






























Interactive Weather Map
Tropical Storm Tracking
New forecast layout! Learn more

10-Day Weather Forecast

Advertisements
Track Severe Weather on mobile